createdAt,value
2018-08-25T00:01:13.327Z,4.40
2018-08-25T00:03:45.457Z,4.00
2018-08-25T00:06:17.210Z,4.00
2018-08-25T00:11:12.271Z,4.00
2018-08-25T00:13:44.276Z,4.60
2018-08-25T00:16:16.241Z,2.00
2018-08-25T00:18:50.076Z,4.00
2018-08-25T00:21:22.156Z,2.00
2018-08-25T00:23:53.540Z,2.80
2018-08-25T00:26:25.721Z,4.60
2018-08-25T00:28:56.732Z,4.40
2018-08-25T00:31:29.639Z,4.00
2018-08-25T00:34:02.247Z,4.00
2018-08-25T00:36:34.460Z,4.00
2018-08-25T00:39:09.532Z,4.00
2018-08-25T00:41:41.248Z,4.00
2018-08-25T00:44:13.932Z,4.00
2018-08-25T00:46:47.668Z,4.00
2018-08-25T00:49:18.641Z,4.00
2018-08-25T00:51:49.607Z,4.00
2018-08-25T00:54:24.433Z,4.00
2018-08-25T00:56:55.479Z,2.80
2018-08-25T00:59:26.769Z,2.00
2018-08-25T01:01:57.884Z,4.00
2018-08-25T01:04:29.613Z,2.00
2018-08-25T01:07:01.925Z,4.00
2018-08-25T01:09:32.935Z,4.00
2018-08-25T01:12:03.901Z,4.40
2018-08-25T01:14:36.109Z,5.00
2018-08-25T01:17:08.351Z,4.00
2018-08-25T01:19:51.501Z,4.00
2018-08-25T01:22:25.415Z,3.20
2018-08-25T01:24:57.802Z,4.00
2018-08-25T01:27:30.216Z,4.40
2018-08-25T01:32:40.976Z,4.00
2018-08-25T01:35:12.410Z,5.00
2018-08-25T01:37:44.365Z,4.00
2018-08-25T01:40:19.027Z,5.40
2018-08-25T01:42:50.668Z,4.80
2018-08-25T01:45:24.292Z,4.00
2018-08-25T01:47:57.732Z,4.00
2018-08-25T01:50:29.271Z,4.00
2018-08-25T01:53:02.621Z,3.60
2018-08-25T01:55:34.153Z,4.00
2018-08-25T01:58:07.451Z,4.00
2018-08-25T02:00:39.794Z,4.00
2018-08-25T02:03:14.156Z,4.00
2018-08-25T02:05:46.115Z,2.40
2018-08-25T02:08:17.063Z,3.60
2018-08-25T02:10:49.754Z,2.00
2018-08-25T02:13:20.893Z,2.40
2018-08-25T02:15:53.021Z,4.80
2018-08-25T02:18:26.352Z,3.20
2018-08-25T02:20:57.445Z,4.20
2018-08-25T02:23:31.105Z,2.00
2018-08-25T02:26:04.148Z,4.00
2018-08-25T02:28:35.867Z,2.00
2018-08-25T02:31:07.638Z,3.60
2018-08-25T02:33:41.608Z,2.40
2018-08-25T02:36:14.670Z,4.00
2018-08-25T02:38:48.225Z,3.80
2018-08-25T02:41:20.610Z,4.00
2018-08-25T02:43:53.056Z,4.00
2018-08-25T02:46:27.508Z,4.40
2018-08-25T02:48:58.673Z,4.80
2018-08-25T02:51:31.759Z,3.60
2018-08-25T02:54:03.334Z,4.00
2018-08-25T02:56:34.735Z,3.00
2018-08-25T02:59:06.070Z,3.00
2018-08-25T03:01:37.837Z,3.20
2018-08-25T03:04:10.351Z,3.80
2018-08-25T03:06:42.266Z,3.00
2018-08-25T03:09:14.280Z,3.60
2018-08-25T03:11:46.003Z,3.60
2018-08-25T03:14:17.197Z,4.00
2018-08-25T03:19:33.876Z,4.00
2018-08-25T03:22:05.616Z,3.60
2018-08-25T03:24:36.625Z,4.00
2018-08-25T03:27:08.196Z,4.00
2018-08-25T03:29:39.276Z,4.00
2018-08-25T03:32:10.956Z,5.20
2018-08-25T03:34:41.945Z,6.00
2018-08-25T03:37:13.170Z,3.80
2018-08-25T03:39:44.636Z,6.00
2018-08-25T03:42:15.582Z,8.20
2018-08-25T03:44:46.525Z,5.20
2018-08-25T03:47:17.472Z,4.00
2018-08-25T03:49:48.579Z,5.20
2018-08-25T03:52:19.944Z,6.00
2018-08-25T03:54:51.450Z,6.00
2018-08-25T03:57:22.533Z,4.80
2018-08-25T03:59:53.869Z,6.20
2018-08-25T04:02:26.810Z,4.80
2018-08-25T04:04:57.819Z,6.00
2018-08-25T04:07:28.775Z,6.40
2018-08-25T04:09:59.769Z,6.00
2018-08-25T04:12:31.112Z,6.00
2018-08-25T04:15:02.203Z,6.80
2018-08-25T04:17:33.352Z,6.00
2018-08-25T04:20:04.329Z,5.60
2018-08-25T04:22:35.336Z,6.00
2018-08-25T04:25:06.652Z,6.00
2018-08-25T04:27:37.666Z,6.40
2018-08-25T04:30:08.661Z,6.60
2018-08-25T04:32:39.188Z,4.00
2018-08-25T04:35:10.162Z,6.40
2018-08-25T04:37:42.316Z,4.00
2018-08-25T04:40:13.955Z,6.20
2018-08-25T04:42:45.143Z,5.60
2018-08-25T04:45:16.520Z,4.00
2018-08-25T04:47:46.656Z,6.00
2018-08-25T04:50:18.589Z,6.00
2018-08-25T04:52:49.069Z,6.00
2018-08-25T04:55:20.991Z,6.00
2018-08-25T04:57:54.966Z,6.80
2018-08-25T05:00:25.923Z,6.00
2018-08-25T05:02:57.268Z,6.00
2018-08-25T05:05:29.055Z,6.00
2018-08-25T05:08:00.037Z,7.80
2018-08-25T05:10:31.078Z,7.00
2018-08-25T05:13:02.081Z,4.00
2018-08-25T05:15:32.319Z,6.00
2018-08-25T05:18:03.368Z,6.00
2018-08-25T05:20:34.419Z,6.40
2018-08-25T05:23:05.433Z,6.00
2018-08-25T05:25:36.569Z,6.00
2018-08-25T05:28:07.924Z,6.00
2018-08-25T05:30:38.980Z,6.00
2018-08-25T05:33:10.103Z,6.00
2018-08-25T05:35:44.060Z,6.00
2018-08-25T05:38:15.132Z,6.40
2018-08-25T05:40:46.667Z,6.00
2018-08-25T05:43:17.714Z,6.00
2018-08-25T05:45:48.753Z,5.80
2018-08-25T05:48:20.367Z,6.80
2018-08-25T05:50:50.521Z,6.00
2018-08-25T05:53:21.474Z,3.80
2018-08-25T05:58:20.965Z,5.00
2018-08-25T06:00:52.025Z,5.00
2018-08-25T06:03:22.989Z,4.60
2018-08-25T06:05:54.589Z,6.20
2018-08-25T06:08:27.632Z,5.40
2018-08-25T06:10:57.867Z,9.00
2018-08-25T06:13:28.958Z,8.20
2018-08-25T06:16:00.887Z,6.00
2018-08-25T06:18:32.409Z,5.00
2018-08-25T06:21:03.442Z,6.00
2018-08-25T06:23:33.673Z,6.00
2018-08-25T06:26:04.658Z,6.00
2018-08-25T06:28:35.716Z,5.20
2018-08-25T06:31:07.497Z,6.00
2018-08-25T06:33:38.138Z,6.00
2018-08-25T06:36:09.272Z,6.40
2018-08-25T06:38:39.572Z,6.33
2018-08-25T06:41:10.512Z,6.20
2018-08-25T06:43:42.388Z,7.00
2018-08-25T06:46:12.747Z,7.00
2018-08-25T06:48:46.507Z,5.60
2018-08-25T06:51:17.928Z,5.40
2018-08-25T06:53:48.931Z,7.00
2018-08-25T06:56:19.943Z,6.60
2018-08-25T06:58:51.312Z,5.80
2018-08-25T07:01:22.307Z,6.00
2018-08-25T07:03:53.597Z,8.20
2018-08-25T07:06:24.806Z,6.00
2018-08-25T07:08:55.901Z,6.60
2018-08-25T07:11:26.879Z,7.00
2018-08-25T07:13:57.824Z,5.40
2018-08-25T07:16:28.837Z,6.00
2018-08-25T07:19:00.647Z,7.00
2018-08-25T07:21:31.979Z,7.40
2018-08-25T07:24:04.610Z,6.00
2018-08-25T07:26:37.181Z,6.80
2018-08-25T07:29:08.371Z,6.20
2018-08-25T07:31:39.357Z,6.40
2018-08-25T07:34:11.560Z,7.20
2018-08-25T07:36:43.818Z,6.00
2018-08-25T07:39:14.843Z,7.00
2018-08-25T07:41:45.024Z,7.33
2018-08-25T07:44:15.219Z,9.00
2018-08-25T07:46:47.924Z,6.80
2018-08-25T07:49:18.931Z,6.60
2018-08-25T07:51:49.996Z,7.00
2018-08-25T07:54:21.041Z,6.60
2018-08-25T07:56:53.945Z,6.60
2018-08-25T07:59:26.147Z,7.40
2018-08-25T08:01:57.159Z,7.40
2018-08-25T08:04:28.124Z,7.40
2018-08-25T08:07:01.401Z,7.00
2018-08-25T08:09:33.280Z,9.60
2018-08-25T08:12:05.627Z,7.67
2018-08-25T08:14:37.330Z,7.40
2018-08-25T08:17:08.351Z,8.00
2018-08-25T08:19:40.265Z,7.60
2018-08-25T08:22:12.164Z,7.00
2018-08-25T08:24:43.243Z,6.40
2018-08-25T08:27:14.837Z,7.00
2018-08-25T08:29:46.950Z,8.00
2018-08-25T08:32:17.977Z,8.00
2018-08-25T08:34:49.357Z,7.00
2018-08-25T08:37:26.889Z,7.00
2018-08-25T08:39:59.942Z,6.00
2018-08-25T08:42:30.911Z,5.60
2018-08-25T08:45:02.363Z,7.00
2018-08-25T08:47:36.488Z,6.00
2018-08-25T08:50:10.149Z,6.00
2018-08-25T08:52:41.608Z,6.00
2018-08-25T08:55:12.625Z,6.00
2018-08-25T08:57:43.681Z,6.40
2018-08-25T09:00:14.660Z,6.20
2018-08-25T09:02:46.306Z,5.60
2018-08-25T09:05:17.296Z,5.00
2018-08-25T09:07:48.437Z,6.00
2018-08-25T09:10:21.319Z,5.00
2018-08-25T09:12:52.361Z,6.40
2018-08-25T09:15:24.492Z,6.00
2018-08-25T09:17:56.191Z,6.00
2018-08-25T09:20:27.227Z,6.00
2018-08-25T09:22:59.327Z,4.20
2018-08-25T09:25:30.484Z,6.00
2018-08-25T09:28:02.642Z,6.00
2018-08-25T09:30:34.467Z,5.60
2018-08-25T09:33:06.358Z,6.00
2018-08-25T09:35:39.165Z,3.00
2018-08-25T09:38:10.338Z,5.00
2018-08-25T09:40:41.497Z,5.00
2018-08-25T09:43:14.827Z,3.00
2018-08-25T09:45:45.943Z,4.00
2018-08-25T09:48:16.965Z,4.40
2018-08-25T09:50:49.560Z,2.60
2018-08-25T09:53:22.496Z,3.00
2018-08-25T09:55:54.443Z,2.00
2018-08-25T09:58:27.342Z,2.00
2018-08-25T10:01:03.815Z,2.20
2018-08-25T10:03:36.288Z,2.40
2018-08-25T10:06:07.359Z,3.00
2018-08-25T10:08:39.275Z,2.00
2018-08-25T10:11:10.817Z,2.00
2018-08-25T10:13:43.676Z,2.00
2018-08-25T10:16:15.701Z,3.00
2018-08-25T10:18:47.173Z,2.00
2018-08-25T10:21:18.208Z,2.00
2018-08-25T10:23:50.303Z,2.00
2018-08-25T10:26:21.327Z,2.00
2018-08-25T10:28:53.401Z,2.00
2018-08-25T10:31:26.155Z,2.00
2018-08-25T10:33:57.739Z,2.00
2018-08-25T10:36:28.853Z,2.00
2018-08-25T10:39:00.219Z,1.60
2018-08-25T10:41:31.191Z,2.00
2018-08-25T10:44:02.536Z,2.00
2018-08-25T10:46:39.101Z,2.00
2018-08-25T10:49:10.390Z,2.60
2018-08-25T10:51:41.506Z,2.00
2018-08-25T10:54:16.703Z,2.00
2018-08-25T10:56:47.718Z,2.00
2018-08-25T10:59:20.245Z,2.60
2018-08-25T11:01:51.428Z,2.00
2018-08-25T11:04:23.037Z,1.00
2018-08-25T11:06:57.429Z,2.40
2018-08-25T11:09:28.428Z,2.00
2018-08-25T11:12:02.027Z,1.00
2018-08-25T11:14:37.060Z,2.00
2018-08-25T11:17:09.382Z,2.00
2018-08-25T11:19:41.163Z,2.00
2018-08-25T11:22:12.367Z,2.00
2018-08-25T11:24:43.425Z,2.00
2018-08-25T11:27:14.553Z,1.80
2018-08-25T11:29:46.849Z,2.00
2018-08-25T11:32:22.619Z,2.00
2018-08-25T11:34:53.934Z,2.00
2018-08-25T11:37:26.514Z,2.00
2018-08-25T11:40:01.195Z,1.00
2018-08-25T11:42:32.756Z,1.60
2018-08-25T11:45:08.161Z,2.00
2018-08-25T11:50:19.760Z,2.40
2018-08-25T11:52:51.406Z,2.00
2018-08-25T11:55:26.077Z,3.00
2018-08-25T11:57:57.283Z,2.00
2018-08-25T12:00:31.364Z,2.00
2018-08-25T12:03:03.833Z,2.80
2018-08-25T12:05:37.524Z,2.00
2018-08-25T12:08:08.518Z,2.00
2018-08-25T12:10:41.377Z,3.00
2018-08-25T12:13:12.456Z,2.00
2018-08-25T12:15:43.618Z,2.00
2018-08-25T12:18:15.757Z,3.00
2018-08-25T12:20:49.652Z,2.00
2018-08-25T12:23:21.243Z,2.00
2018-08-25T12:25:52.366Z,2.00
2018-08-25T12:28:24.592Z,2.00
2018-08-25T12:30:56.576Z,2.00
2018-08-25T12:33:30.355Z,3.00
2018-08-25T12:36:05.625Z,3.00
2018-08-25T12:38:37.560Z,2.40
2018-08-25T12:41:08.638Z,2.00
2018-08-25T12:43:41.271Z,2.00
2018-08-25T12:46:12.728Z,3.00
2018-08-25T12:48:43.780Z,2.00
2018-08-25T12:51:16.275Z,2.60
2018-08-25T12:53:50.443Z,2.00
2018-08-25T12:56:25.545Z,2.80
2018-08-25T12:58:57.556Z,4.00
2018-08-25T13:01:31.526Z,2.80
2018-08-25T13:04:02.814Z,2.00
2018-08-25T13:06:33.733Z,2.00
2018-08-25T13:09:08.062Z,2.20
2018-08-25T13:11:40.568Z,2.40
2018-08-25T13:14:11.608Z,2.80
2018-08-25T13:16:47.217Z,2.00
2018-08-25T13:19:20.894Z,3.40
2018-08-25T13:21:51.966Z,2.00
2018-08-25T13:24:24.558Z,3.20
2018-08-25T13:26:56.468Z,3.00
2018-08-25T13:29:27.430Z,2.40
2018-08-25T13:31:59.432Z,2.40
2018-08-25T13:34:30.970Z,2.00
2018-08-25T13:37:04.242Z,2.60
2018-08-25T13:39:35.263Z,3.00
2018-08-25T13:42:06.873Z,3.00
2018-08-25T13:44:39.251Z,2.20
2018-08-25T13:47:10.920Z,3.00
2018-08-25T13:49:42.153Z,3.00
2018-08-25T13:52:14.785Z,2.60
2018-08-25T13:54:47.667Z,2.00
2018-08-25T13:57:20.763Z,3.00
2018-08-25T13:59:52.789Z,3.00
2018-08-25T14:02:25.873Z,2.60
2018-08-25T14:04:58.570Z,3.20
2018-08-25T14:07:29.575Z,3.40
2018-08-25T14:10:02.674Z,2.40
2018-08-25T14:12:34.658Z,2.00
2018-08-25T14:15:07.578Z,3.00
2018-08-25T14:17:39.970Z,3.00
2018-08-25T14:20:12.488Z,3.60
2018-08-25T14:22:46.359Z,2.20
2018-08-25T14:25:17.963Z,3.00
2018-08-25T14:27:48.985Z,2.60
2018-08-25T14:30:22.487Z,2.00
2018-08-25T14:32:53.585Z,2.00
2018-08-25T14:35:28.766Z,4.00
2018-08-25T14:38:00.418Z,3.00
2018-08-25T14:40:32.554Z,3.00
2018-08-25T14:43:03.949Z,3.00
2018-08-25T14:45:36.835Z,3.00
2018-08-25T14:48:11.964Z,3.20
2018-08-25T14:50:45.347Z,2.20
2018-08-25T14:53:16.917Z,3.00
2018-08-25T14:55:48.030Z,4.00
2018-08-25T14:58:24.450Z,3.00
2018-08-25T15:00:55.648Z,3.00
2018-08-25T15:03:28.026Z,3.00
2018-08-25T15:05:59.950Z,2.20
2018-08-25T15:08:32.956Z,3.20
2018-08-25T15:11:07.789Z,3.00
2018-08-25T15:13:38.870Z,3.00
2018-08-25T15:16:13.486Z,2.20
2018-08-25T15:18:45.594Z,3.00
2018-08-25T15:21:17.681Z,3.00
2018-08-25T15:23:49.676Z,3.00
2018-08-25T15:26:23.685Z,2.40
2018-08-25T15:28:55.680Z,3.00
2018-08-25T15:31:28.361Z,3.60
2018-08-25T15:33:59.813Z,3.00
2018-08-25T15:36:31.541Z,3.40
2018-08-25T15:39:03.673Z,3.80
2018-08-25T15:41:37.474Z,2.80
2018-08-25T15:44:11.485Z,3.00
2018-08-25T15:46:43.570Z,3.00
2018-08-25T15:49:15.406Z,3.00
2018-08-25T15:51:48.756Z,4.00
2018-08-25T15:54:20.561Z,3.00
2018-08-25T15:56:52.672Z,3.80
2018-08-25T15:59:23.709Z,3.80
2018-08-25T16:01:55.511Z,3.00
2018-08-25T16:04:27.458Z,3.40
2018-08-25T16:06:58.640Z,3.00
2018-08-25T16:09:32.215Z,4.00
2018-08-25T16:12:04.884Z,3.00
2018-08-25T16:14:38.528Z,3.00
2018-08-25T16:17:10.144Z,4.00
2018-08-25T16:19:42.487Z,3.00
2018-08-25T16:22:13.774Z,3.60
2018-08-25T16:24:47.332Z,3.00
2018-08-25T16:27:18.585Z,4.00
2018-08-25T16:29:50.271Z,2.40
2018-08-25T16:32:22.442Z,3.00
2018-08-25T16:34:55.269Z,3.60
2018-08-25T16:37:28.706Z,3.00
2018-08-25T16:39:59.869Z,3.00
2018-08-25T16:42:35.955Z,3.60
2018-08-25T16:45:10.171Z,3.60
2018-08-25T16:47:44.198Z,2.00
2018-08-25T16:50:16.123Z,3.60
2018-08-25T16:52:47.410Z,3.60
2018-08-25T16:55:20.805Z,3.20
2018-08-25T16:57:58.606Z,3.00
2018-08-25T17:00:37.375Z,3.00
2018-08-25T17:03:08.796Z,3.60
2018-08-25T17:05:42.223Z,3.00
2018-08-25T17:08:13.464Z,3.20
2018-08-25T17:10:45.368Z,3.00
2018-08-25T17:13:17.227Z,3.00
2018-08-25T17:19:14.353Z,4.00
2018-08-25T17:21:45.819Z,4.00
2018-08-25T17:24:17.685Z,3.00
2018-08-25T17:26:48.904Z,3.60
2018-08-25T17:29:21.077Z,3.00
2018-08-25T17:31:53.905Z,3.00
2018-08-25T17:34:26.821Z,3.00
2018-08-25T17:39:40.048Z,4.00
2018-08-25T17:42:15.383Z,3.00
2018-08-25T17:44:49.403Z,3.20
2018-08-25T17:47:23.253Z,3.00
2018-08-25T17:49:57.668Z,3.00
2018-08-25T17:52:32.627Z,3.80
2018-08-25T17:55:09.622Z,3.00
2018-08-25T17:57:45.767Z,4.40
2018-08-25T18:00:24.555Z,4.60
2018-08-25T18:03:00.599Z,5.00
2018-08-25T18:05:45.743Z,3.40
2018-08-25T18:08:29.269Z,3.00
2018-08-25T18:11:02.538Z,3.00
2018-08-25T18:13:37.259Z,4.00
2018-08-25T18:18:55.092Z,3.40
2018-08-25T18:21:26.703Z,3.80
2018-08-25T18:23:59.991Z,3.00
2018-08-25T18:26:33.995Z,5.00
2018-08-25T18:29:08.566Z,2.40
2018-08-25T18:31:43.061Z,3.40
2018-08-25T18:34:17.071Z,3.40
2018-08-25T18:36:50.601Z,3.40
2018-08-25T18:39:21.768Z,4.20
2018-08-25T18:41:53.908Z,3.40
2018-08-25T18:44:27.887Z,5.00
2018-08-25T18:47:00.326Z,4.00
2018-08-25T18:49:32.881Z,2.80
2018-08-25T18:52:06.777Z,3.20
2018-08-25T18:54:39.415Z,2.40
2018-08-25T18:57:15.328Z,4.00
2018-08-25T18:59:50.716Z,4.00
2018-08-25T19:02:25.824Z,3.20
2018-08-25T19:04:57.532Z,4.00
2018-08-25T19:07:28.732Z,3.60
2018-08-25T19:10:03.426Z,4.00
2018-08-25T19:12:38.283Z,4.60
2018-08-25T19:15:11.761Z,4.40
2018-08-25T19:17:45.101Z,4.00
2018-08-25T19:20:18.784Z,4.00
2018-08-25T19:22:50.904Z,4.40
2018-08-25T19:25:23.023Z,4.40
2018-08-25T19:27:55.064Z,4.00
2018-08-25T19:30:26.708Z,4.00
2018-08-25T19:32:59.697Z,5.00
2018-08-25T19:35:37.407Z,7.40
2018-08-25T19:38:10.801Z,6.60
2018-08-25T19:40:46.453Z,5.00
2018-08-25T19:43:17.500Z,5.00
2018-08-25T19:45:50.809Z,5.40
2018-08-25T19:48:22.220Z,5.00
2018-08-25T19:50:56.618Z,5.00
2018-08-25T19:53:27.665Z,5.00
2018-08-25T19:56:00.802Z,5.60
2018-08-25T19:58:34.026Z,5.00
2018-08-25T20:01:05.178Z,4.40
2018-08-25T20:03:36.965Z,5.00
2018-08-25T20:06:09.835Z,4.00
2018-08-25T20:08:40.982Z,5.00
2018-08-25T20:11:13.080Z,5.00
2018-08-25T20:13:46.404Z,4.00
2018-08-25T20:16:21.072Z,4.20
2018-08-25T20:18:52.422Z,5.00
2018-08-25T20:21:26.540Z,4.00
2018-08-25T20:23:59.449Z,4.40
2018-08-25T20:26:31.412Z,5.00
2018-08-25T20:29:02.850Z,4.00
2018-08-25T20:31:38.073Z,4.00
2018-08-25T20:34:14.343Z,2.00
2018-08-25T20:36:46.834Z,4.00
2018-08-25T20:39:25.047Z,2.40
2018-08-25T20:41:56.191Z,2.40
2018-08-25T20:44:27.290Z,4.80
2018-08-25T20:46:59.286Z,3.60
2018-08-25T20:49:36.763Z,4.00
2018-08-25T20:52:08.606Z,5.00
2018-08-25T20:54:40.427Z,3.20
2018-08-25T20:57:13.366Z,4.00
2018-08-25T20:59:46.267Z,4.00
2018-08-25T21:02:24.582Z,4.00
2018-08-25T21:04:56.986Z,2.00
2018-08-25T21:07:35.581Z,4.00
2018-08-25T21:10:13.755Z,3.60
2018-08-25T21:12:52.298Z,4.00
2018-08-25T21:15:27.013Z,4.00
2018-08-25T21:18:02.623Z,4.00
2018-08-25T21:20:36.322Z,4.00
2018-08-25T21:23:08.070Z,2.00
2018-08-25T21:25:41.172Z,4.00
2018-08-25T21:28:13.412Z,2.00
2018-08-25T21:30:45.752Z,3.20
2018-08-25T21:33:18.304Z,4.00
2018-08-25T21:35:51.595Z,4.00
2018-08-25T21:38:22.705Z,2.80
2018-08-25T21:40:54.852Z,4.00
2018-08-25T21:43:26.471Z,2.00
2018-08-25T21:45:58.272Z,4.00
2018-08-25T21:48:32.494Z,4.00
2018-08-25T21:51:07.644Z,3.40
2018-08-25T21:53:39.482Z,2.60
2018-08-25T21:56:11.727Z,4.00
2018-08-25T21:58:47.495Z,4.00
2018-08-25T22:01:18.515Z,4.00
2018-08-25T22:03:52.384Z,2.80
2018-08-25T22:06:26.808Z,4.60
2018-08-25T22:09:02.839Z,4.00
2018-08-25T22:11:35.606Z,4.00
2018-08-25T22:14:06.808Z,4.00
2018-08-25T22:16:38.410Z,4.00
2018-08-25T22:19:10.418Z,2.80
2018-08-25T22:21:42.236Z,3.20
2018-08-25T22:24:15.523Z,4.00
2018-08-25T22:26:47.397Z,4.00
2018-08-25T22:29:19.761Z,5.00
2018-08-25T22:31:53.107Z,4.00
2018-08-25T22:34:25.179Z,4.00
2018-08-25T22:36:59.084Z,4.00
2018-08-25T22:39:32.485Z,4.80
2018-08-25T22:42:08.476Z,4.00
2018-08-25T22:44:39.592Z,2.40
2018-08-25T22:47:11.262Z,4.80
2018-08-25T22:49:44.651Z,4.00
2018-08-25T22:52:16.771Z,4.60
2018-08-25T22:54:50.340Z,4.40
2018-08-25T22:57:22.843Z,4.00
2018-08-25T22:59:57.778Z,4.00
2018-08-25T23:02:34.138Z,5.60
2018-08-25T23:05:08.080Z,4.00
2018-08-25T23:07:42.271Z,4.00
2018-08-25T23:10:14.013Z,4.00
2018-08-25T23:12:47.180Z,5.20
2018-08-25T23:15:20.595Z,5.20
2018-08-25T23:17:54.803Z,4.80
2018-08-25T23:20:28.405Z,4.00
2018-08-25T23:23:02.788Z,5.20
2018-08-25T23:25:34.548Z,4.00
2018-08-25T23:28:06.403Z,4.00
2018-08-25T23:30:40.135Z,4.00
2018-08-25T23:33:11.386Z,4.00
2018-08-25T23:35:45.917Z,4.00
2018-08-25T23:38:20.788Z,4.80
2018-08-25T23:40:58.170Z,5.20
2018-08-25T23:43:32.237Z,4.00
2018-08-25T23:46:03.282Z,6.00
2018-08-25T23:48:34.438Z,5.20
2018-08-25T23:51:05.492Z,6.40
2018-08-25T23:53:37.381Z,4.80
2018-08-25T23:56:10.603Z,6.80
2018-08-25T23:58:42.396Z,4.80
